sensor_id;sensor_type;location;lat;lon;timestamp;P1;durP1;ratioP1;P2;durP2;ratioP2
16401;SDS011;8310;44.626;11.176;2023-04-27T00:00:34;4.63;;;4.32;;
16401;SDS011;8310;44.626;11.176;2023-04-27T00:03:02;5.55;;;5.05;;
16401;SDS011;8310;44.626;11.176;2023-04-27T00:05:34;4.72;;;4.38;;
16401;SDS011;8310;44.626;11.176;2023-04-27T00:08:03;4.85;;;4.45;;
16401;SDS011;8310;44.626;11.176;2023-04-27T00:10:31;5.18;;;4.80;;
16401;SDS011;8310;44.626;11.176;2023-04-27T00:12:59;5.35;;;4.85;;
16401;SDS011;8310;44.626;11.176;2023-04-27T00:15:27;5.25;;;4.72;;
16401;SDS011;8310;44.626;11.176;2023-04-27T00:17:55;5.57;;;4.95;;
16401;SDS011;8310;44.626;11.176;2023-04-27T00:20:23;4.82;;;4.43;;
16401;SDS011;8310;44.626;11.176;2023-04-27T00:22:52;5.65;;;5.03;;
16401;SDS011;8310;44.626;11.176;2023-04-27T00:25:20;5.63;;;5.13;;
16401;SDS011;8310;44.626;11.176;2023-04-27T00:27:47;5.72;;;5.18;;
16401;SDS011;8310;44.626;11.176;2023-04-27T00:30:15;6.03;;;5.13;;
16401;SDS011;8310;44.626;11.176;2023-04-27T00:32:43;7.60;;;5.47;;
16401;SDS011;8310;44.626;11.176;2023-04-27T00:35:10;5.75;;;5.35;;
16401;SDS011;8310;44.626;11.176;2023-04-27T00:37:38;5.43;;;4.93;;
16401;SDS011;8310;44.626;11.176;2023-04-27T00:40:07;5.57;;;5.10;;
16401;SDS011;8310;44.626;11.176;2023-04-27T00:42:36;6.47;;;5.13;;
16401;SDS011;8310;44.626;11.176;2023-04-27T00:45:04;5.65;;;5.20;;
16401;SDS011;8310;44.626;11.176;2023-04-27T00:47:33;6.75;;;5.28;;
16401;SDS011;8310;44.626;11.176;2023-04-27T00:50:01;6.00;;;5.47;;
16401;SDS011;8310;44.626;11.176;2023-04-27T00:52:32;5.78;;;5.28;;
16401;SDS011;8310;44.626;11.176;2023-04-27T00:55:01;6.15;;;5.60;;
16401;SDS011;8310;44.626;11.176;2023-04-27T00:57:31;6.20;;;5.63;;
16401;SDS011;8310;44.626;11.176;2023-04-27T01:00:00;6.38;;;5.88;;
16401;SDS011;8310;44.626;11.176;2023-04-27T01:02:29;6.00;;;5.50;;
16401;SDS011;8310;44.626;11.176;2023-04-27T01:04:57;7.68;;;5.88;;
16401;SDS011;8310;44.626;11.176;2023-04-27T01:07:25;6.60;;;5.90;;
16401;SDS011;8310;44.626;11.176;2023-04-27T01:09:53;6.70;;;6.05;;
16401;SDS011;8310;44.626;11.176;2023-04-27T01:12:20;6.07;;;5.47;;
16401;SDS011;8310;44.626;11.176;2023-04-27T01:14:49;6.10;;;5.60;;
16401;SDS011;8310;44.626;11.176;2023-04-27T01:17:17;5.88;;;5.38;;
16401;SDS011;8310;44.626;11.176;2023-04-27T01:19:44;6.75;;;5.75;;
16401;SDS011;8310;44.626;11.176;2023-04-27T01:22:11;6.22;;;5.70;;
16401;SDS011;8310;44.626;11.176;2023-04-27T01:24:41;6.68;;;5.93;;
16401;SDS011;8310;44.626;11.176;2023-04-27T01:27:09;5.43;;;4.88;;
16401;SDS011;8310;44.626;11.176;2023-04-27T01:29:36;5.45;;;4.90;;
16401;SDS011;8310;44.626;11.176;2023-04-27T01:32:04;4.78;;;4.47;;
16401;SDS011;8310;44.626;11.176;2023-04-27T01:34:33;4.95;;;4.55;;
16401;SDS011;8310;44.626;11.176;2023-04-27T01:37:01;5.95;;;5.28;;
16401;SDS011;8310;44.626;11.176;2023-04-27T01:39:28;6.72;;;5.25;;
16401;SDS011;8310;44.626;11.176;2023-04-27T01:42:00;5.82;;;5.30;;
16401;SDS011;8310;44.626;11.176;2023-04-27T01:44:28;5.63;;;5.03;;
16401;SDS011;8310;44.626;11.176;2023-04-27T01:46:56;6.15;;;5.57;;
16401;SDS011;8310;44.626;11.176;2023-04-27T01:49:24;6.95;;;5.60;;
16401;SDS011;8310;44.626;11.176;2023-04-27T01:51:51;5.60;;;5.10;;
16401;SDS011;8310;44.626;11.176;2023-04-27T01:54:19;5.30;;;4.90;;
16401;SDS011;8310;44.626;11.176;2023-04-27T01:56:46;5.70;;;5.30;;
16401;SDS011;8310;44.626;11.176;2023-04-27T01:59:17;5.20;;;4.70;;
16401;SDS011;8310;44.626;11.176;2023-04-27T02:01:45;5.22;;;4.80;;
16401;SDS011;8310;44.626;11.176;2023-04-27T02:04:13;5.78;;;4.82;;
16401;SDS011;8310;44.626;11.176;2023-04-27T02:06:41;5.47;;;4.40;;
16401;SDS011;8310;44.626;11.176;2023-04-27T02:09:08;5.10;;;4.60;;
16401;SDS011;8310;44.626;11.176;2023-04-27T02:11:36;5.53;;;4.95;;
16401;SDS011;8310;44.626;11.176;2023-04-27T02:14:03;7.53;;;5.43;;
16401;SDS011;8310;44.626;11.176;2023-04-27T02:16:32;5.47;;;4.95;;
16401;SDS011;8310;44.626;11.176;2023-04-27T02:19:00;5.80;;;5.18;;
16401;SDS011;8310;44.626;11.176;2023-04-27T02:21:27;5.30;;;4.90;;
16401;SDS011;8310;44.626;11.176;2023-04-27T02:23:54;5.43;;;4.93;;
16401;SDS011;8310;44.626;11.176;2023-04-27T02:26:23;6.20;;;5.43;;
16401;SDS011;8310;44.626;11.176;2023-04-27T02:28:53;5.53;;;5.13;;
16401;SDS011;8310;44.626;11.176;2023-04-27T02:31:21;5.82;;;5.22;;
16401;SDS011;8310;44.626;11.176;2023-04-27T02:33:51;6.20;;;5.60;;
16401;SDS011;8310;44.626;11.176;2023-04-27T02:36:19;5.97;;;5.47;;
16401;SDS011;8310;44.626;11.176;2023-04-27T02:38:47;6.80;;;5.72;;
16401;SDS011;8310;44.626;11.176;2023-04-27T02:41:14;5.53;;;4.97;;
16401;SDS011;8310;44.626;11.176;2023-04-27T02:43:42;5.53;;;5.03;;
16401;SDS011;8310;44.626;11.176;2023-04-27T02:46:10;6.00;;;5.47;;
16401;SDS011;8310;44.626;11.176;2023-04-27T02:48:38;5.75;;;5.25;;
16401;SDS011;8310;44.626;11.176;2023-04-27T02:51:06;5.78;;;5.25;;
16401;SDS011;8310;44.626;11.176;2023-04-27T02:53:34;6.45;;;5.85;;
16401;SDS011;8310;44.626;11.176;2023-04-27T02:56:02;5.65;;;5.25;;
16401;SDS011;8310;44.626;11.176;2023-04-27T02:58:30;6.28;;;5.68;;
16401;SDS011;8310;44.626;11.176;2023-04-27T03:00:57;6.65;;;5.95;;
16401;SDS011;8310;44.626;11.176;2023-04-27T03:03:25;5.82;;;5.32;;
16401;SDS011;8310;44.626;11.176;2023-04-27T03:05:53;5.78;;;5.25;;
16401;SDS011;8310;44.626;11.176;2023-04-27T03:08:22;5.93;;;5.10;;
16401;SDS011;8310;44.626;11.176;2023-04-27T03:10:51;5.65;;;5.25;;
16401;SDS011;8310;44.626;11.176;2023-04-27T03:13:19;5.60;;;5.10;;
16401;SDS011;8310;44.626;11.176;2023-04-27T03:15:47;6.95;;;6.35;;
16401;SDS011;8310;44.626;11.176;2023-04-27T03:18:14;6.78;;;6.28;;
16401;SDS011;8310;44.626;11.176;2023-04-27T03:20:43;7.60;;;6.78;;
16401;SDS011;8310;44.626;11.176;2023-04-27T03:23:10;7.05;;;6.20;;
16401;SDS011;8310;44.626;11.176;2023-04-27T03:25:39;7.30;;;6.47;;
16401;SDS011;8310;44.626;11.176;2023-04-27T03:28:06;6.20;;;5.70;;
16401;SDS011;8310;44.626;11.176;2023-04-27T03:30:34;6.47;;;5.78;;
16401;SDS011;8310;44.626;11.176;2023-04-27T03:33:01;6.78;;;6.07;;
16401;SDS011;8310;44.626;11.176;2023-04-27T03:35:29;7.25;;;6.55;;
16401;SDS011;8310;44.626;11.176;2023-04-27T03:37:57;6.72;;;6.13;;
16401;SDS011;8310;44.626;11.176;2023-04-27T03:40:25;6.22;;;5.60;;
16401;SDS011;8310;44.626;11.176;2023-04-27T03:42:54;6.65;;;6.05;;
16401;SDS011;8310;44.626;11.176;2023-04-27T03:45:22;6.43;;;5.88;;
16401;SDS011;8310;44.626;11.176;2023-04-27T03:47:49;6.85;;;6.25;;
16401;SDS011;8310;44.626;11.176;2023-04-27T03:50:17;6.35;;;5.75;;
16401;SDS011;8310;44.626;11.176;2023-04-27T03:52:45;7.18;;;6.00;;
16401;SDS011;8310;44.626;11.176;2023-04-27T03:55:12;7.55;;;5.90;;
16401;SDS011;8310;44.626;11.176;2023-04-27T03:57:40;6.68;;;6.15;;
16401;SDS011;8310;44.626;11.176;2023-04-27T04:00:10;10.07;;;6.97;;
16401;SDS011;8310;44.626;11.176;2023-04-27T04:02:39;6.80;;;6.20;;
16401;SDS011;8310;44.626;11.176;2023-04-27T04:05:08;7.18;;;6.47;;
16401;SDS011;8310;44.626;11.176;2023-04-27T04:07:35;7.43;;;6.15;;
16401;SDS011;8310;44.626;11.176;2023-04-27T04:10:04;6.22;;;5.55;;
16401;SDS011;8310;44.626;11.176;2023-04-27T04:12:32;6.75;;;5.80;;
16401;SDS011;8310;44.626;11.176;2023-04-27T04:15:00;7.22;;;5.95;;
16401;SDS011;8310;44.626;11.176;2023-04-27T04:17:29;7.13;;;6.03;;
16401;SDS011;8310;44.626;11.176;2023-04-27T04:19:58;7.53;;;6.63;;
16401;SDS011;8310;44.626;11.176;2023-04-27T04:22:25;8.23;;;6.60;;
16401;SDS011;8310;44.626;11.176;2023-04-27T04:24:53;8.65;;;6.72;;
16401;SDS011;8310;44.626;11.176;2023-04-27T04:27:20;7.50;;;6.78;;
16401;SDS011;8310;44.626;11.176;2023-04-27T04:29:48;7.30;;;6.60;;
16401;SDS011;8310;44.626;11.176;2023-04-27T04:32:16;6.82;;;6.22;;
16401;SDS011;8310;44.626;11.176;2023-04-27T04:34:48;7.80;;;6.75;;
16401;SDS011;8310;44.626;11.176;2023-04-27T04:37:17;7.47;;;6.43;;
16401;SDS011;8310;44.626;11.176;2023-04-27T04:39:45;7.30;;;6.60;;
16401;SDS011;8310;44.626;11.176;2023-04-27T04:42:12;7.47;;;6.68;;
16401;SDS011;8310;44.626;11.176;2023-04-27T04:44:43;8.73;;;6.50;;
16401;SDS011;8310;44.626;11.176;2023-04-27T04:47:11;7.78;;;6.72;;
16401;SDS011;8310;44.626;11.176;2023-04-27T04:49:39;8.68;;;7.40;;
16401;SDS011;8310;44.626;11.176;2023-04-27T04:52:08;9.35;;;8.00;;
16401;SDS011;8310;44.626;11.176;2023-04-27T04:54:36;9.32;;;7.78;;
16401;SDS011;8310;44.626;11.176;2023-04-27T04:57:04;14.43;;;9.20;;
16401;SDS011;8310;44.626;11.176;2023-04-27T04:59:31;12.50;;;9.55;;
16401;SDS011;8310;44.626;11.176;2023-04-27T05:01:59;9.38;;;7.93;;
16401;SDS011;8310;44.626;11.176;2023-04-27T05:04:26;8.23;;;7.43;;
16401;SDS011;8310;44.626;11.176;2023-04-27T05:06:54;9.32;;;7.25;;
16401;SDS011;8310;44.626;11.176;2023-04-27T05:09:23;17.10;;;8.88;;
16401;SDS011;8310;44.626;11.176;2023-04-27T05:11:50;6.75;;;6.05;;
16401;SDS011;8310;44.626;11.176;2023-04-27T05:14:19;6.82;;;6.22;;
16401;SDS011;8310;44.626;11.176;2023-04-27T05:16:46;7.95;;;6.30;;
16401;SDS011;8310;44.626;11.176;2023-04-27T05:19:15;6.68;;;6.07;;
16401;SDS011;8310;44.626;11.176;2023-04-27T05:21:44;7.45;;;6.53;;
16401;SDS011;8310;44.626;11.176;2023-04-27T05:24:12;6.37;;;5.77;;
16401;SDS011;8310;44.626;11.176;2023-04-27T05:26:41;6.70;;;6.00;;
16401;SDS011;8310;44.626;11.176;2023-04-27T05:29:09;7.15;;;6.55;;
16401;SDS011;8310;44.626;11.176;2023-04-27T05:31:37;8.02;;;6.35;;
16401;SDS011;8310;44.626;11.176;2023-04-27T05:34:05;6.90;;;6.30;;
16401;SDS011;8310;44.626;11.176;2023-04-27T05:36:34;7.90;;;5.90;;
16401;SDS011;8310;44.626;11.176;2023-04-27T05:39:02;8.05;;;7.35;;
16401;SDS011;8310;44.626;11.176;2023-04-27T05:41:31;8.13;;;7.20;;
16401;SDS011;8310;44.626;11.176;2023-04-27T05:44:00;8.48;;;7.60;;
16401;SDS011;8310;44.626;11.176;2023-04-27T05:46:28;10.35;;;7.72;;
16401;SDS011;8310;44.626;11.176;2023-04-27T05:48:57;9.98;;;7.55;;
16401;SDS011;8310;44.626;11.176;2023-04-27T05:51:24;7.90;;;7.15;;
16401;SDS011;8310;44.626;11.176;2023-04-27T05:53:52;8.40;;;7.60;;
16401;SDS011;8310;44.626;11.176;2023-04-27T05:56:20;7.95;;;7.28;;
16401;SDS011;8310;44.626;11.176;2023-04-27T05:58:48;9.32;;;8.13;;
16401;SDS011;8310;44.626;11.176;2023-04-27T06:01:18;8.88;;;7.90;;
16401;SDS011;8310;44.626;11.176;2023-04-27T06:03:45;10.10;;;8.43;;
16401;SDS011;8310;44.626;11.176;2023-04-27T06:06:13;9.27;;;8.15;;
16401;SDS011;8310;44.626;11.176;2023-04-27T06:08:42;9.85;;;8.85;;
16401;SDS011;8310;44.626;11.176;2023-04-27T06:11:09;8.77;;;8.00;;
16401;SDS011;8310;44.626;11.176;2023-04-27T06:13:36;9.30;;;8.50;;
16401;SDS011;8310;44.626;11.176;2023-04-27T06:16:04;8.30;;;7.60;;
16401;SDS011;8310;44.626;11.176;2023-04-27T06:18:33;9.60;;;8.60;;
16401;SDS011;8310;44.626;11.176;2023-04-27T06:21:02;10.25;;;9.20;;
16401;SDS011;8310;44.626;11.176;2023-04-27T06:23:29;9.35;;;8.35;;
16401;SDS011;8310;44.626;11.176;2023-04-27T06:25:56;9.98;;;8.98;;
16401;SDS011;8310;44.626;11.176;2023-04-27T06:28:24;9.55;;;8.75;;
16401;SDS011;8310;44.626;11.176;2023-04-27T06:30:52;9.40;;;8.55;;
16401;SDS011;8310;44.626;11.176;2023-04-27T06:33:20;10.05;;;8.75;;
16401;SDS011;8310;44.626;11.176;2023-04-27T06:35:49;10.35;;;9.45;;
16401;SDS011;8310;44.626;11.176;2023-04-27T06:38:21;11.52;;;10.25;;
16401;SDS011;8310;44.626;11.176;2023-04-27T06:40:49;10.40;;;9.40;;
16401;SDS011;8310;44.626;11.176;2023-04-27T06:43:17;12.57;;;10.30;;
16401;SDS011;8310;44.626;11.176;2023-04-27T06:45:45;10.32;;;9.43;;
16401;SDS011;8310;44.626;11.176;2023-04-27T06:48:12;11.65;;;10.05;;
16401;SDS011;8310;44.626;11.176;2023-04-27T06:50:39;10.13;;;9.23;;
16401;SDS011;8310;44.626;11.176;2023-04-27T06:53:09;10.63;;;9.63;;
16401;SDS011;8310;44.626;11.176;2023-04-27T06:55:37;10.98;;;9.93;;
16401;SDS011;8310;44.626;11.176;2023-04-27T06:58:05;11.25;;;10.23;;
16401;SDS011;8310;44.626;11.176;2023-04-27T07:00:32;11.70;;;10.50;;
16401;SDS011;8310;44.626;11.176;2023-04-27T07:03:00;10.32;;;9.40;;
16401;SDS011;8310;44.626;11.176;2023-04-27T07:05:28;9.82;;;9.02;;
16401;SDS011;8310;44.626;11.176;2023-04-27T07:07:55;11.65;;;10.48;;
16401;SDS011;8310;44.626;11.176;2023-04-27T07:10:25;10.82;;;9.77;;
16401;SDS011;8310;44.626;11.176;2023-04-27T07:12:52;11.13;;;10.02;;
16401;SDS011;8310;44.626;11.176;2023-04-27T07:15:20;10.00;;;9.10;;
16401;SDS011;8310;44.626;11.176;2023-04-27T07:17:49;12.18;;;9.35;;
16401;SDS011;8310;44.626;11.176;2023-04-27T07:20:18;9.52;;;8.63;;
16401;SDS011;8310;44.626;11.176;2023-04-27T07:22:46;9.32;;;8.52;;
16401;SDS011;8310;44.626;11.176;2023-04-27T07:25:13;10.18;;;9.20;;
16401;SDS011;8310;44.626;11.176;2023-04-27T07:27:42;10.15;;;9.25;;
16401;SDS011;8310;44.626;11.176;2023-04-27T07:30:10;10.65;;;9.65;;
16401;SDS011;8310;44.626;11.176;2023-04-27T07:32:38;10.20;;;9.15;;
16401;SDS011;8310;44.626;11.176;2023-04-27T07:35:07;10.88;;;9.88;;
16401;SDS011;8310;44.626;11.176;2023-04-27T07:37:34;9.88;;;8.98;;
16401;SDS011;8310;44.626;11.176;2023-04-27T07:40:04;10.73;;;9.07;;
16401;SDS011;8310;44.626;11.176;2023-04-27T07:42:40;14.95;;;10.00;;
16401;SDS011;8310;44.626;11.176;2023-04-27T07:45:10;12.63;;;10.65;;
16401;SDS011;8310;44.626;11.176;2023-04-27T07:47:38;10.38;;;9.57;;
16401;SDS011;8310;44.626;11.176;2023-04-27T07:50:06;10.50;;;9.52;;
16401;SDS011;8310;44.626;11.176;2023-04-27T07:52:35;10.02;;;9.20;;
16401;SDS011;8310;44.626;11.176;2023-04-27T07:55:03;9.60;;;8.45;;
16401;SDS011;8310;44.626;11.176;2023-04-27T07:57:31;9.20;;;8.30;;
16401;SDS011;8310;44.626;11.176;2023-04-27T07:59:58;9.40;;;8.45;;
16401;SDS011;8310;44.626;11.176;2023-04-27T08:02:27;9.88;;;8.90;;
16401;SDS011;8310;44.626;11.176;2023-04-27T08:04:56;8.77;;;7.97;;
16401;SDS011;8310;44.626;11.176;2023-04-27T08:07:24;8.30;;;7.60;;
16401;SDS011;8310;44.626;11.176;2023-04-27T08:09:51;8.95;;;8.25;;
16401;SDS011;8310;44.626;11.176;2023-04-27T08:12:19;8.13;;;7.43;;
16401;SDS011;8310;44.626;11.176;2023-04-27T08:14:47;8.25;;;7.45;;
16401;SDS011;8310;44.626;11.176;2023-04-27T08:17:14;9.05;;;8.02;;
16401;SDS011;8310;44.626;11.176;2023-04-27T08:19:44;9.18;;;8.38;;
16401;SDS011;8310;44.626;11.176;2023-04-27T08:22:11;8.40;;;7.68;;
16401;SDS011;8310;44.626;11.176;2023-04-27T08:24:39;7.65;;;7.00;;
16401;SDS011;8310;44.626;11.176;2023-04-27T08:27:07;8.20;;;7.20;;
16401;SDS011;8310;44.626;11.176;2023-04-27T08:29:34;8.18;;;7.47;;
16401;SDS011;8310;44.626;11.176;2023-04-27T08:32:02;9.40;;;8.25;;
16401;SDS011;8310;44.626;11.176;2023-04-27T08:34:30;7.93;;;7.15;;
16401;SDS011;8310;44.626;11.176;2023-04-27T08:36:59;8.85;;;7.97;;
16401;SDS011;8310;44.626;11.176;2023-04-27T08:39:28;8.32;;;7.53;;
16401;SDS011;8310;44.626;11.176;2023-04-27T08:41:56;9.25;;;7.47;;
16401;SDS011;8310;44.626;11.176;2023-04-27T08:44:24;10.10;;;7.78;;
16401;SDS011;8310;44.626;11.176;2023-04-27T08:46:51;8.30;;;7.60;;
16401;SDS011;8310;44.626;11.176;2023-04-27T08:49:18;7.53;;;6.82;;
16401;SDS011;8310;44.626;11.176;2023-04-27T08:51:47;7.40;;;6.47;;
16401;SDS011;8310;44.626;11.176;2023-04-27T08:54:17;8.15;;;7.40;;
16401;SDS011;8310;44.626;11.176;2023-04-27T08:56:44;9.45;;;7.05;;
16401;SDS011;8310;44.626;11.176;2023-04-27T08:59:12;9.00;;;8.20;;
16401;SDS011;8310;44.626;11.176;2023-04-27T09:01:44;7.82;;;7.13;;
16401;SDS011;8310;44.626;11.176;2023-04-27T09:04:13;7.28;;;6.60;;
16401;SDS011;8310;44.626;11.176;2023-04-27T09:06:41;7.70;;;7.03;;
16401;SDS011;8310;44.626;11.176;2023-04-27T09:09:09;7.70;;;7.00;;
16401;SDS011;8310;44.626;11.176;2023-04-27T09:11:49;7.40;;;6.63;;
16401;SDS011;8310;44.626;11.176;2023-04-27T09:14:17;7.72;;;7.05;;
16401;SDS011;8310;44.626;11.176;2023-04-27T09:16:52;7.72;;;7.03;;
16401;SDS011;8310;44.626;11.176;2023-04-27T09:19:24;7.30;;;6.72;;
16401;SDS011;8310;44.626;11.176;2023-04-27T09:22:01;7.95;;;6.82;;
16401;SDS011;8310;44.626;11.176;2023-04-27T09:24:35;7.00;;;6.50;;
16401;SDS011;8310;44.626;11.176;2023-04-27T09:27:03;6.63;;;5.97;;
16401;SDS011;8310;44.626;11.176;2023-04-27T09:29:33;6.32;;;5.68;;
16401;SDS011;8310;44.626;11.176;2023-04-27T09:32:12;6.20;;;5.80;;
16401;SDS011;8310;44.626;11.176;2023-04-27T09:34:41;6.50;;;5.75;;
16401;SDS011;8310;44.626;11.176;2023-04-27T09:37:09;7.20;;;6.60;;
16401;SDS011;8310;44.626;11.176;2023-04-27T09:39:38;7.57;;;6.25;;
16401;SDS011;8310;44.626;11.176;2023-04-27T09:42:07;11.60;;;6.72;;
16401;SDS011;8310;44.626;11.176;2023-04-27T09:44:34;10.82;;;6.45;;
16401;SDS011;8310;44.626;11.176;2023-04-27T09:47:02;6.18;;;5.57;;
16401;SDS011;8310;44.626;11.176;2023-04-27T09:49:38;6.47;;;5.88;;
16401;SDS011;8310;44.626;11.176;2023-04-27T09:52:06;5.50;;;5.00;;
16401;SDS011;8310;44.626;11.176;2023-04-27T09:54:33;5.38;;;4.32;;
16401;SDS011;8310;44.626;11.176;2023-04-27T09:57:10;4.50;;;4.20;;
16401;SDS011;8310;44.626;11.176;2023-04-27T09:59:47;5.07;;;4.63;;
16401;SDS011;8310;44.626;11.176;2023-04-27T10:02:32;4.05;;;3.63;;
16401;SDS011;8310;44.626;11.176;2023-04-27T10:05:24;4.95;;;3.80;;
16401;SDS011;8310;44.626;11.176;2023-04-27T10:08:02;4.30;;;3.97;;
16401;SDS011;8310;44.626;11.176;2023-04-27T10:10:40;3.38;;;3.15;;
16401;SDS011;8310;44.626;11.176;2023-04-27T10:13:18;4.30;;;4.00;;
16401;SDS011;8310;44.626;11.176;2023-04-27T10:15:47;3.92;;;3.58;;
16401;SDS011;8310;44.626;11.176;2023-04-27T10:18:23;4.18;;;3.40;;
16401;SDS011;8310;44.626;11.176;2023-04-27T10:20:52;3.80;;;3.50;;
16401;SDS011;8310;44.626;11.176;2023-04-27T10:23:23;3.88;;;3.67;;
16401;SDS011;8310;44.626;11.176;2023-04-27T10:25:52;3.63;;;3.25;;
16401;SDS011;8310;44.626;11.176;2023-04-27T10:28:21;3.50;;;3.25;;
16401;SDS011;8310;44.626;11.176;2023-04-27T10:30:49;3.88;;;2.70;;
16401;SDS011;8310;44.626;11.176;2023-04-27T10:33:17;2.67;;;2.50;;
16401;SDS011;8310;44.626;11.176;2023-04-27T10:35:53;2.42;;;2.33;;
16401;SDS011;8310;44.626;11.176;2023-04-27T10:38:28;2.88;;;2.17;;
16401;SDS011;8310;44.626;11.176;2023-04-27T10:40:57;3.28;;;2.70;;
16401;SDS011;8310;44.626;11.176;2023-04-27T10:43:28;2.53;;;2.33;;
16401;SDS011;8310;44.626;11.176;2023-04-27T10:46:05;2.63;;;2.10;;
16401;SDS011;8310;44.626;11.176;2023-04-27T10:48:33;3.33;;;2.10;;
16401;SDS011;8310;44.626;11.176;2023-04-27T10:51:00;2.33;;;2.15;;
16401;SDS011;8310;44.626;11.176;2023-04-27T10:53:32;2.85;;;2.00;;
16401;SDS011;8310;44.626;11.176;2023-04-27T10:56:01;2.63;;;1.70;;
16401;SDS011;8310;44.626;11.176;2023-04-27T10:58:32;2.08;;;1.85;;
16401;SDS011;8310;44.626;11.176;2023-04-27T11:00:59;1.98;;;1.88;;
16401;SDS011;8310;44.626;11.176;2023-04-27T11:03:28;2.03;;;1.83;;
16401;SDS011;8310;44.626;11.176;2023-04-27T11:06:00;2.10;;;1.90;;
16401;SDS011;8310;44.626;11.176;2023-04-27T11:08:29;2.05;;;1.95;;
16401;SDS011;8310;44.626;11.176;2023-04-27T11:10:56;2.30;;;2.10;;
16401;SDS011;8310;44.626;11.176;2023-04-27T11:13:25;2.25;;;1.98;;
16401;SDS011;8310;44.626;11.176;2023-04-27T11:15:55;2.13;;;1.95;;
16401;SDS011;8310;44.626;11.176;2023-04-27T11:18:24;1.98;;;1.80;;
16401;SDS011;8310;44.626;11.176;2023-04-27T11:20:54;1.95;;;1.80;;
16401;SDS011;8310;44.626;11.176;2023-04-27T11:23:32;1.70;;;1.60;;
16401;SDS011;8310;44.626;11.176;2023-04-27T11:26:07;2.08;;;1.73;;
16401;SDS011;8310;44.626;11.176;2023-04-27T11:28:35;2.03;;;1.92;;
16401;SDS011;8310;44.626;11.176;2023-04-27T11:31:06;1.60;;;1.50;;
16401;SDS011;8310;44.626;11.176;2023-04-27T11:33:33;3.05;;;1.50;;
16401;SDS011;8310;44.626;11.176;2023-04-27T11:36:01;4.22;;;1.73;;
16401;SDS011;8310;44.626;11.176;2023-04-27T11:38:32;3.30;;;1.80;;
16401;SDS011;8310;44.626;11.176;2023-04-27T11:41:02;4.00;;;2.10;;
16401;SDS011;8310;44.626;11.176;2023-04-27T11:43:31;1.90;;;1.67;;
16401;SDS011;8310;44.626;11.176;2023-04-27T11:46:01;1.83;;;1.70;;
16401;SDS011;8310;44.626;11.176;2023-04-27T11:48:31;2.08;;;1.60;;
16401;SDS011;8310;44.626;11.176;2023-04-27T11:51:02;2.70;;;1.60;;
16401;SDS011;8310;44.626;11.176;2023-04-27T11:53:31;3.10;;;1.50;;
16401;SDS011;8310;44.626;11.176;2023-04-27T11:55:59;1.45;;;1.35;;
16401;SDS011;8310;44.626;11.176;2023-04-27T11:58:29;1.77;;;1.67;;
16401;SDS011;8310;44.626;11.176;2023-04-27T12:00:59;1.38;;;1.27;;
16401;SDS011;8310;44.626;11.176;2023-04-27T12:03:27;2.30;;;2.05;;
16401;SDS011;8310;44.626;11.176;2023-04-27T12:05:56;2.78;;;1.60;;
16401;SDS011;8310;44.626;11.176;2023-04-27T12:08:23;2.90;;;1.88;;
16401;SDS011;8310;44.626;11.176;2023-04-27T12:10:52;1.98;;;1.83;;
16401;SDS011;8310;44.626;11.176;2023-04-27T12:13:20;1.90;;;1.80;;
16401;SDS011;8310;44.626;11.176;2023-04-27T12:15:48;2.00;;;1.73;;
16401;SDS011;8310;44.626;11.176;2023-04-27T12:18:16;2.25;;;1.80;;
16401;SDS011;8310;44.626;11.176;2023-04-27T12:20:43;2.72;;;1.63;;
16401;SDS011;8310;44.626;11.176;2023-04-27T12:23:13;1.63;;;1.52;;
16401;SDS011;8310;44.626;11.176;2023-04-27T12:25:40;2.25;;;2.05;;
16401;SDS011;8310;44.626;11.176;2023-04-27T12:28:08;1.58;;;1.48;;
16401;SDS011;8310;44.626;11.176;2023-04-27T12:30:36;2.38;;;1.80;;
16401;SDS011;8310;44.626;11.176;2023-04-27T12:33:04;2.13;;;1.85;;
16401;SDS011;8310;44.626;11.176;2023-04-27T12:35:37;1.77;;;1.65;;
16401;SDS011;8310;44.626;11.176;2023-04-27T12:38:05;2.35;;;1.85;;
16401;SDS011;8310;44.626;11.176;2023-04-27T12:40:35;1.92;;;1.58;;
16401;SDS011;8310;44.626;11.176;2023-04-27T12:43:02;1.75;;;1.65;;
16401;SDS011;8310;44.626;11.176;2023-04-27T12:45:30;1.92;;;1.38;;
16401;SDS011;8310;44.626;11.176;2023-04-27T12:47:58;1.50;;;1.40;;
16401;SDS011;8310;44.626;11.176;2023-04-27T12:50:25;2.60;;;1.83;;
16401;SDS011;8310;44.626;11.176;2023-04-27T12:52:53;1.73;;;1.60;;
16401;SDS011;8310;44.626;11.176;2023-04-27T12:55:20;4.10;;;2.20;;
16401;SDS011;8310;44.626;11.176;2023-04-27T12:57:49;5.30;;;2.30;;
16401;SDS011;8310;44.626;11.176;2023-04-27T13:00:17;1.85;;;1.75;;
16401;SDS011;8310;44.626;11.176;2023-04-27T13:02:45;2.85;;;1.92;;
16401;SDS011;8310;44.626;11.176;2023-04-27T13:05:13;1.85;;;1.75;;
16401;SDS011;8310;44.626;11.176;2023-04-27T13:07:40;2.97;;;2.15;;
16401;SDS011;8310;44.626;11.176;2023-04-27T13:10:08;3.22;;;2.00;;
16401;SDS011;8310;44.626;11.176;2023-04-27T13:12:36;3.45;;;2.00;;
16401;SDS011;8310;44.626;11.176;2023-04-27T13:15:07;1.90;;;1.60;;
16401;SDS011;8310;44.626;11.176;2023-04-27T13:17:34;2.28;;;1.98;;
16401;SDS011;8310;44.626;11.176;2023-04-27T13:20:03;4.40;;;3.33;;
16401;SDS011;8310;44.626;11.176;2023-04-27T13:22:33;15.57;;;12.30;;
16401;SDS011;8310;44.626;11.176;2023-04-27T13:25:00;3.25;;;3.00;;
16401;SDS011;8310;44.626;11.176;2023-04-27T13:27:27;3.72;;;2.00;;
16401;SDS011;8310;44.626;11.176;2023-04-27T13:29:54;1.73;;;1.58;;
16401;SDS011;8310;44.626;11.176;2023-04-27T13:32:24;1.48;;;1.38;;
16401;SDS011;8310;44.626;11.176;2023-04-27T13:34:52;5.57;;;3.97;;
16401;SDS011;8310;44.626;11.176;2023-04-27T13:37:20;2.20;;;1.95;;
16401;SDS011;8310;44.626;11.176;2023-04-27T13:39:48;1.60;;;1.50;;
16401;SDS011;8310;44.626;11.176;2023-04-27T13:42:15;1.70;;;1.60;;
16401;SDS011;8310;44.626;11.176;2023-04-27T13:44:43;2.03;;;1.75;;
16401;SDS011;8310;44.626;11.176;2023-04-27T13:47:10;1.70;;;1.60;;
16401;SDS011;8310;44.626;11.176;2023-04-27T13:49:40;3.55;;;2.00;;
16401;SDS011;8310;44.626;11.176;2023-04-27T13:52:07;1.88;;;1.45;;
16401;SDS011;8310;44.626;11.176;2023-04-27T13:54:35;3.05;;;1.63;;
16401;SDS011;8310;44.626;11.176;2023-04-27T13:59:38;3.97;;;1.60;;
16401;SDS011;8310;44.626;11.176;2023-04-27T14:02:06;1.40;;;1.30;;
16401;SDS011;8310;44.626;11.176;2023-04-27T14:04:34;1.52;;;1.42;;
16401;SDS011;8310;44.626;11.176;2023-04-27T14:07:04;1.90;;;1.80;;
16401;SDS011;8310;44.626;11.176;2023-04-27T14:09:31;5.03;;;1.60;;
16401;SDS011;8310;44.626;11.176;2023-04-27T14:11:58;2.28;;;2.08;;
16401;SDS011;8310;44.626;11.176;2023-04-27T14:14:28;3.33;;;1.85;;
16401;SDS011;8310;44.626;11.176;2023-04-27T14:16:55;4.13;;;1.67;;
16401;SDS011;8310;44.626;11.176;2023-04-27T14:19:26;6.20;;;2.10;;
16401;SDS011;8310;44.626;11.176;2023-04-27T14:21:54;2.70;;;1.70;;
16401;SDS011;8310;44.626;11.176;2023-04-27T14:24:24;1.88;;;1.75;;
16401;SDS011;8310;44.626;11.176;2023-04-27T14:26:52;3.17;;;1.55;;
16401;SDS011;8310;44.626;11.176;2023-04-27T14:29:19;1.38;;;1.38;;
16401;SDS011;8310;44.626;11.176;2023-04-27T14:31:47;3.95;;;1.50;;
16401;SDS011;8310;44.626;11.176;2023-04-27T14:34:14;4.35;;;2.17;;
16401;SDS011;8310;44.626;11.176;2023-04-27T14:36:42;2.70;;;1.65;;
16401;SDS011;8310;44.626;11.176;2023-04-27T14:39:10;3.45;;;1.77;;
16401;SDS011;8310;44.626;11.176;2023-04-27T14:41:40;2.58;;;1.45;;
16401;SDS011;8310;44.626;11.176;2023-04-27T14:44:08;3.65;;;1.42;;
16401;SDS011;8310;44.626;11.176;2023-04-27T14:46:35;2.13;;;1.50;;
16401;SDS011;8310;44.626;11.176;2023-04-27T14:49:03;1.92;;;1.30;;
16401;SDS011;8310;44.626;11.176;2023-04-27T14:51:31;5.97;;;2.05;;
16401;SDS011;8310;44.626;11.176;2023-04-27T14:53:59;5.03;;;1.80;;
16401;SDS011;8310;44.626;11.176;2023-04-27T14:56:26;2.80;;;1.55;;